Hyannis, MA

8:13 PM EDT on September 29, 2016 (GMT -0400)
Pitchers Way | | Change Station

Elev 52 ft 41.66 °N, 70.31 °W | Updated 24 seconds ago

Overcast
Overcast
57.3 °F
Feels Like 57.3 °F
N
2.0
Wind Variable Wind from South

Today
High -- | Low -- °F
--% Chance of Precip.
Yesterday
High -- | Low -- °F
Precip. -- in
Pressure 30.44 in
Visibility 10.0 miles
Clouds Overcast 2000 ft
Dew Point 51 °F
Humidity 81%
Rainfall 0.02 in
Snow Depth Not available.
6:36 AM 6:25 PM
Waning Crescent, 1% visible
METAR KHYA 292356Z 04010KT 10SM OVC020 14/10 A3044 RMK AO2 SLP308 T01390100 10161 20139 53008
Pressure 30.44 in
Visibility 10.0 miles
Clouds Overcast 2000 ft
Dew Point 51 °F
Humidity 81%
Rainfall 0.02 in
Snow Depth Not available.
6:36 AM 6:25 PM
Waning Crescent, 1% visible
METAR KHYA 292356Z 04010KT 10SM OVC020 14/10 A3044 RMK AO2 SLP308 T01390100 10161 20139 53008

10-Day Weather Forecast

Almanac

Astronomy

Sep. 29, 2016 Rise Set
Actual Time
Civil Twilight
Nautical Twilight
Astronomical Twilight
Moon
Length of Visible Light
Length of Day
Tomorrow will be .
, % of the Moon is Illuminated

Today's Extremes

State Highs State Lows

Community

WunderPhotos

Upload Photos

1,942,611 photos uploaded!

WunderBlog® & News

Nearby

Air Quality

  Air Quality AQ Index Pollutant
Not available.

Snow Depth

Station Depth Elevation

Earthquake Activity

City Distance Mag. Time & Date
Minimum magnitude displayed is 2.5.

Coastal Water Temperatures

Place Temperature

Stations

Nearby Weather Stations

Station Location Temp. Windchill Dew Point Humidity Wind Precip. Elev Updated Type
                   

Watches & Warnings

There are currently no watches in effect.